createdAt,value
2023-06-20T00:02:02.996Z,12.68
2023-06-20T00:04:29.891Z,6.60
2023-06-20T00:06:56.726Z,5.55
2023-06-20T00:09:23.499Z,6.35
2023-06-20T00:11:50.252Z,7.88
2023-06-20T00:14:17.059Z,8.55
2023-06-20T00:16:43.799Z,5.88
2023-06-20T00:19:10.668Z,5.82
2023-06-20T00:21:40.793Z,7.38
2023-06-20T00:24:10.990Z,5.35
2023-06-20T00:26:41.214Z,8.88
2023-06-20T00:29:08.137Z,5.82
2023-06-20T00:31:35.253Z,6.15
2023-06-20T00:34:02.145Z,5.20
2023-06-20T00:36:29.078Z,8.38
2023-06-20T00:38:56.507Z,7.65
2023-06-20T00:41:23.850Z,6.95
2023-06-20T00:43:51.388Z,7.93
2023-06-20T00:46:20.805Z,6.43
2023-06-20T00:48:49.628Z,7.55
2023-06-20T00:51:17.779Z,7.20
2023-06-20T00:53:45.076Z,7.93
2023-06-20T00:56:12.352Z,6.78
2023-06-20T00:58:39.522Z,9.82
2023-06-20T01:01:07.065Z,7.65
2023-06-20T01:03:37.325Z,8.80
2023-06-20T01:06:35.342Z,7.05
2023-06-20T01:09:17.269Z,8.50
2023-06-20T01:11:44.381Z,8.18
2023-06-20T01:14:23.525Z,7.25
2023-06-20T01:17:06.965Z,7.38
2023-06-20T01:19:55.119Z,8.40
2023-06-20T01:22:34.268Z,8.15
2023-06-20T01:25:06.710Z,9.38
2023-06-20T01:27:39.981Z,6.93
2023-06-20T01:30:25.529Z,7.38
2023-06-20T01:32:55.871Z,6.78
2023-06-20T01:35:27.109Z,9.55
2023-06-20T01:38:08.129Z,9.13
2023-06-20T01:40:38.251Z,8.25
2023-06-20T01:43:07.654Z,7.78
2023-06-20T01:45:39.601Z,9.60
2023-06-20T01:48:09.683Z,7.70
2023-06-20T01:50:38.461Z,9.27
2023-06-20T01:53:08.213Z,7.95
2023-06-20T01:55:37.116Z,9.40
2023-06-20T01:58:05.824Z,10.45
2023-06-20T02:00:33.506Z,7.55
2023-06-20T02:03:02.267Z,7.78
2023-06-20T02:05:32.476Z,7.65
2023-06-20T02:08:01.651Z,7.35
2023-06-20T02:10:29.924Z,8.73
2023-06-20T02:12:57.694Z,8.52
2023-06-20T02:15:27.376Z,7.60
2023-06-20T02:17:55.574Z,7.25
2023-06-20T02:20:22.761Z,7.25
2023-06-20T02:22:53.311Z,6.97
2023-06-20T02:25:32.372Z,7.63
2023-06-20T02:28:00.519Z,9.73
2023-06-20T02:30:31.699Z,7.38
2023-06-20T02:33:01.196Z,7.63
2023-06-20T02:35:30.500Z,8.85
2023-06-20T02:37:59.608Z,8.75
2023-06-20T02:40:26.499Z,8.50
2023-06-20T02:42:53.918Z,6.90
2023-06-20T02:45:21.476Z,7.28
2023-06-20T02:48:12.127Z,8.30
2023-06-20T02:50:43.814Z,10.52
2023-06-20T02:53:39.505Z,9.02
2023-06-20T02:56:13.378Z,9.30
2023-06-20T02:58:44.345Z,10.02
2023-06-20T03:01:12.356Z,8.30
2023-06-20T03:03:46.633Z,8.75
2023-06-20T03:06:17.012Z,9.73
2023-06-20T03:08:45.825Z,8.02
2023-06-20T03:11:12.707Z,9.38
2023-06-20T03:13:40.202Z,8.07
2023-06-20T03:16:10.650Z,9.93
2023-06-20T03:18:38.505Z,7.95
2023-06-20T03:21:19.329Z,7.78
2023-06-20T03:23:53.620Z,7.22
2023-06-20T03:26:20.339Z,8.93
2023-06-20T03:28:47.115Z,10.90
2023-06-20T03:31:14.198Z,7.70
2023-06-20T03:33:41.149Z,8.45
2023-06-20T03:36:11.193Z,9.40
2023-06-20T03:38:38.278Z,9.52
2023-06-20T03:41:05.185Z,7.57
2023-06-20T03:43:32.188Z,9.23
2023-06-20T03:45:59.082Z,7.43
2023-06-20T03:48:25.878Z,7.50
2023-06-20T03:50:53.001Z,7.10
2023-06-20T03:53:20.056Z,8.57
2023-06-20T03:55:47.382Z,7.32
2023-06-20T03:58:14.163Z,8.15
2023-06-20T04:00:40.965Z,6.90
2023-06-20T04:03:07.957Z,7.70
2023-06-20T04:05:34.769Z,9.15
2023-06-20T04:08:02.911Z,8.15
2023-06-20T04:10:29.709Z,9.02
2023-06-20T04:12:56.569Z,7.88
2023-06-20T04:15:23.768Z,9.00
2023-06-20T04:17:51.078Z,7.22
2023-06-20T04:20:17.956Z,6.78
2023-06-20T04:22:47.654Z,7.43
2023-06-20T04:25:15.727Z,8.85
2023-06-20T04:27:45.012Z,7.05
2023-06-20T04:30:12.737Z,6.57
2023-06-20T04:32:42.952Z,7.57
2023-06-20T04:35:12.511Z,7.00
2023-06-20T04:37:40.618Z,7.13
2023-06-20T04:40:09.960Z,8.55
2023-06-20T04:42:37.709Z,8.05
2023-06-20T04:45:06.002Z,8.63
2023-06-20T04:47:34.146Z,9.68
2023-06-20T04:50:04.853Z,6.78
2023-06-20T04:52:31.980Z,6.28
2023-06-20T04:55:03.794Z,6.57
2023-06-20T04:57:31.531Z,8.68
2023-06-20T04:59:58.576Z,6.60
2023-06-20T05:02:26.307Z,7.20
2023-06-20T05:04:53.291Z,6.00
2023-06-20T05:07:20.488Z,6.55
2023-06-20T05:09:47.327Z,7.40
2023-06-20T05:12:14.243Z,5.78
2023-06-20T05:14:40.995Z,7.13
2023-06-20T05:17:07.752Z,7.30
2023-06-20T05:19:34.698Z,5.90
2023-06-20T05:22:01.541Z,6.30
2023-06-20T05:24:28.453Z,8.15
2023-06-20T05:26:55.264Z,6.25
2023-06-20T05:29:22.064Z,6.70
2023-06-20T05:31:48.964Z,5.90
2023-06-20T05:34:19.127Z,5.63
2023-06-20T05:36:47.474Z,6.55
2023-06-20T05:39:14.890Z,5.63
2023-06-20T05:41:43.487Z,5.18
2023-06-20T05:44:10.317Z,5.05
2023-06-20T05:46:37.117Z,5.43
2023-06-20T05:49:05.011Z,4.97
2023-06-20T05:51:31.962Z,4.78
2023-06-20T05:53:59.015Z,6.53
2023-06-20T05:56:26.099Z,5.20
2023-06-20T05:58:53.034Z,5.57
2023-06-20T06:01:19.920Z,4.90
2023-06-20T06:03:49.126Z,5.15
2023-06-20T06:06:17.778Z,4.13
2023-06-20T06:08:44.577Z,4.53
2023-06-20T06:11:11.420Z,4.32
2023-06-20T06:13:40.020Z,4.30
2023-06-20T06:16:07.054Z,5.28
2023-06-20T06:18:33.901Z,5.35
2023-06-20T06:21:00.992Z,4.20
2023-06-20T06:23:28.327Z,4.05
2023-06-20T06:25:55.258Z,4.63
2023-06-20T06:28:25.437Z,4.20
2023-06-20T06:30:52.226Z,4.72
2023-06-20T06:33:21.316Z,4.50
2023-06-20T06:35:49.704Z,5.90
2023-06-20T06:38:16.713Z,4.57
2023-06-20T06:40:45.233Z,4.85
2023-06-20T06:43:12.172Z,6.03
2023-06-20T06:45:39.621Z,3.60
2023-06-20T06:48:06.567Z,4.28
2023-06-20T06:50:33.544Z,3.78
2023-06-20T06:53:00.485Z,4.07
2023-06-20T06:55:27.778Z,3.78
2023-06-20T06:57:54.985Z,6.03
2023-06-20T07:00:22.689Z,3.60
2023-06-20T07:02:49.631Z,5.35
2023-06-20T07:05:16.580Z,4.60
2023-06-20T07:07:43.784Z,4.30
2023-06-20T07:10:11.640Z,3.83
2023-06-20T07:12:39.150Z,4.30
2023-06-20T07:15:06.375Z,4.47
2023-06-20T07:17:33.269Z,3.50
2023-06-20T07:20:00.058Z,4.00
2023-06-20T07:22:26.913Z,4.30
2023-06-20T07:24:56.895Z,6.75
2023-06-20T07:27:24.204Z,4.82
2023-06-20T07:29:51.010Z,3.88
2023-06-20T07:32:17.946Z,4.07
2023-06-20T07:34:44.761Z,3.75
2023-06-20T07:37:12.065Z,4.28
2023-06-20T07:39:44.078Z,5.30
2023-06-20T07:42:11.251Z,8.32
2023-06-20T07:44:38.005Z,3.33
2023-06-20T07:47:05.139Z,3.72
2023-06-20T07:49:32.379Z,4.05
2023-06-20T07:51:59.213Z,3.88
2023-06-20T07:54:26.821Z,6.97
2023-06-20T07:56:53.595Z,3.35
2023-06-20T07:59:20.871Z,3.40
2023-06-20T08:01:47.788Z,3.25
2023-06-20T08:04:14.728Z,5.95
2023-06-20T08:06:41.431Z,3.13
2023-06-20T08:09:08.260Z,3.17
2023-06-20T08:11:35.887Z,2.95
2023-06-20T08:14:02.977Z,2.60
2023-06-20T08:16:29.831Z,3.50
2023-06-20T08:18:56.675Z,3.15
2023-06-20T08:21:23.489Z,4.10
2023-06-20T08:23:50.385Z,3.70
2023-06-20T08:26:17.287Z,3.17
2023-06-20T08:28:44.089Z,6.70
2023-06-20T08:31:10.927Z,3.13
2023-06-20T08:33:37.700Z,2.47
2023-06-20T08:36:05.668Z,4.22
2023-06-20T08:38:32.594Z,3.80
2023-06-20T08:40:59.663Z,2.88
2023-06-20T08:43:30.121Z,3.00
2023-06-20T08:45:57.200Z,5.72
2023-06-20T08:48:24.977Z,2.50
2023-06-20T08:50:52.406Z,3.05
2023-06-20T08:53:22.791Z,3.67
2023-06-20T08:55:53.206Z,3.92
2023-06-20T08:58:20.033Z,4.07
2023-06-20T09:00:47.325Z,2.78
2023-06-20T09:03:14.272Z,3.33
2023-06-20T09:05:47.266Z,4.30
2023-06-20T09:08:18.338Z,2.05
2023-06-20T09:10:48.318Z,3.65
2023-06-20T09:13:15.496Z,1.83
2023-06-20T09:15:42.766Z,1.83
2023-06-20T09:18:14.586Z,3.90
2023-06-20T09:20:45.063Z,4.05
2023-06-20T09:23:12.770Z,2.67
2023-06-20T09:25:41.427Z,2.03
2023-06-20T09:28:16.465Z,1.33
2023-06-20T09:30:46.504Z,2.80
2023-06-20T09:33:14.959Z,2.53
2023-06-20T09:35:42.083Z,2.47
2023-06-20T09:38:08.933Z,5.68
2023-06-20T09:40:47.030Z,1.92
2023-06-20T09:43:14.135Z,3.83
2023-06-20T09:45:40.925Z,10.40
2023-06-20T09:48:10.125Z,3.50
2023-06-20T09:50:40.003Z,2.90
2023-06-20T09:53:19.252Z,2.40
2023-06-20T09:55:47.142Z,1.95
2023-06-20T09:58:18.166Z,2.38
2023-06-20T10:00:46.211Z,3.67
2023-06-20T10:03:13.867Z,3.88
2023-06-20T10:05:42.592Z,2.38
2023-06-20T10:08:09.577Z,3.45
2023-06-20T10:10:36.336Z,2.13
2023-06-20T10:13:04.632Z,1.98
2023-06-20T10:15:31.517Z,3.03
2023-06-20T10:17:58.482Z,2.10
2023-06-20T10:20:39.003Z,3.25
2023-06-20T10:23:09.286Z,3.53
2023-06-20T10:25:49.963Z,3.88
2023-06-20T10:28:21.305Z,1.67
2023-06-20T10:30:50.384Z,2.70
2023-06-20T10:33:24.770Z,2.63
2023-06-20T10:35:58.853Z,3.08
2023-06-20T10:38:30.330Z,6.18
2023-06-20T10:41:21.639Z,4.13
2023-06-20T10:44:02.096Z,2.58
2023-06-20T10:46:49.851Z,2.00
2023-06-20T10:49:16.795Z,3.13
2023-06-20T10:51:48.017Z,4.30
2023-06-20T10:54:16.047Z,5.45
2023-06-20T10:56:45.296Z,2.55
2023-06-20T10:59:16.265Z,4.50
2023-06-20T11:01:43.483Z,3.55
2023-06-20T11:04:12.260Z,3.17
2023-06-20T11:06:39.619Z,2.78
2023-06-20T11:09:16.302Z,3.47
2023-06-20T11:11:43.077Z,2.90
2023-06-20T11:14:35.935Z,2.17
2023-06-20T11:17:03.143Z,3.15
2023-06-20T11:19:37.572Z,2.40
2023-06-20T11:22:05.745Z,4.10
2023-06-20T11:24:36.624Z,2.53
2023-06-20T11:27:13.918Z,2.08
2023-06-20T11:29:41.033Z,3.97
2023-06-20T11:32:09.631Z,1.90
2023-06-20T11:35:00.956Z,2.00
2023-06-20T11:37:28.108Z,2.65
2023-06-20T11:39:54.942Z,2.22
2023-06-20T11:42:22.181Z,2.20
2023-06-20T11:44:49.228Z,2.10
2023-06-20T11:47:16.781Z,2.08
2023-06-20T11:49:43.624Z,3.38
2023-06-20T11:52:10.767Z,2.80
2023-06-20T11:54:51.535Z,3.03
2023-06-20T11:57:28.914Z,3.03
2023-06-20T11:59:59.656Z,3.05
2023-06-20T12:02:27.861Z,3.03
2023-06-20T12:04:59.129Z,2.55
2023-06-20T12:07:27.765Z,4.63
2023-06-20T12:09:55.286Z,2.25
2023-06-20T12:12:32.100Z,3.45
2023-06-20T12:14:59.192Z,3.30
2023-06-20T12:17:26.155Z,2.75
2023-06-20T12:19:54.391Z,2.55
2023-06-20T12:22:21.481Z,6.15
2023-06-20T12:24:48.554Z,3.92
2023-06-20T12:27:17.384Z,4.10
2023-06-20T12:30:10.694Z,2.45
2023-06-20T12:32:44.526Z,2.90
2023-06-20T12:35:11.322Z,3.38
2023-06-20T12:37:40.422Z,4.57
2023-06-20T12:40:09.031Z,4.72
2023-06-20T12:42:38.365Z,6.10
2023-06-20T12:45:06.093Z,2.63
2023-06-20T12:47:33.092Z,4.75
2023-06-20T12:50:03.574Z,3.85
2023-06-20T12:52:30.960Z,3.80
2023-06-20T12:54:59.497Z,5.95
2023-06-20T12:57:27.141Z,2.92
2023-06-20T12:59:54.456Z,2.88
2023-06-20T13:02:22.736Z,2.42
2023-06-20T13:04:52.946Z,2.60
2023-06-20T13:07:23.561Z,2.55
2023-06-20T13:09:51.230Z,3.20
2023-06-20T13:12:18.869Z,3.90
2023-06-20T13:14:54.053Z,2.58
2023-06-20T13:17:33.909Z,5.13
2023-06-20T13:20:01.567Z,4.18
2023-06-20T13:22:29.314Z,2.72
2023-06-20T13:24:56.339Z,2.33
2023-06-20T13:27:26.501Z,2.60
2023-06-20T13:29:56.261Z,5.93
2023-06-20T13:32:23.358Z,4.95
2023-06-20T13:34:50.520Z,5.03
2023-06-20T13:37:17.305Z,3.03
2023-06-20T13:39:45.193Z,5.35
2023-06-20T13:42:12.420Z,3.83
2023-06-20T13:44:41.460Z,3.45
2023-06-20T13:47:10.289Z,2.38
2023-06-20T13:49:37.241Z,4.55
2023-06-20T13:52:04.304Z,4.43
2023-06-20T13:54:31.204Z,4.60
2023-06-20T13:56:58.161Z,4.03
2023-06-20T13:59:27.369Z,5.90
2023-06-20T14:01:54.330Z,3.15
2023-06-20T14:04:21.113Z,5.30
2023-06-20T14:06:48.177Z,3.88
2023-06-20T14:09:15.666Z,4.40
2023-06-20T14:11:42.500Z,3.00
2023-06-20T14:14:10.461Z,5.72
2023-06-20T14:16:37.444Z,5.50
2023-06-20T14:19:05.483Z,3.95
2023-06-20T14:21:32.483Z,4.07
2023-06-20T14:23:59.374Z,4.82
2023-06-20T14:26:26.303Z,6.78
2023-06-20T14:28:53.191Z,5.07
2023-06-20T14:31:20.058Z,6.85
2023-06-20T14:33:46.950Z,7.10
2023-06-20T14:36:13.771Z,7.22
2023-06-20T14:38:41.658Z,8.05
2023-06-20T14:41:08.438Z,5.13
2023-06-20T14:43:35.604Z,5.93
2023-06-20T14:46:02.625Z,4.78
2023-06-20T14:48:29.583Z,3.35
2023-06-20T14:50:56.563Z,7.97
2023-06-20T14:53:23.410Z,6.80
2023-06-20T14:55:50.249Z,6.38
2023-06-20T14:58:17.172Z,6.57
2023-06-20T15:00:44.214Z,3.83
2023-06-20T15:03:12.374Z,4.68
2023-06-20T15:05:39.636Z,4.95
2023-06-20T15:08:06.729Z,3.80
2023-06-20T15:10:33.713Z,5.50
2023-06-20T15:13:00.636Z,7.63
2023-06-20T15:15:27.566Z,6.97
2023-06-20T15:17:56.972Z,5.97
2023-06-20T15:20:25.783Z,4.63
2023-06-20T15:22:53.247Z,5.43
2023-06-20T15:25:20.085Z,7.35
2023-06-20T15:27:47.228Z,8.23
2023-06-20T15:30:16.030Z,5.18
2023-06-20T15:32:44.937Z,5.65
2023-06-20T15:35:14.864Z,8.63
2023-06-20T15:37:42.819Z,3.65
2023-06-20T15:40:10.270Z,5.15
2023-06-20T15:42:39.249Z,8.48
2023-06-20T15:45:07.389Z,6.00
2023-06-20T15:47:34.898Z,5.10
2023-06-20T15:50:02.732Z,10.80
2023-06-20T15:52:30.101Z,7.15
2023-06-20T15:54:57.058Z,7.05
2023-06-20T15:57:23.888Z,6.97
2023-06-20T15:59:53.859Z,5.25
2023-06-20T16:02:20.771Z,6.63
2023-06-20T16:04:48.670Z,11.65
2023-06-20T16:07:16.596Z,6.18
2023-06-20T16:09:43.742Z,10.02
2023-06-20T16:12:11.834Z,6.68
2023-06-20T16:14:40.185Z,5.47
2023-06-20T16:17:08.037Z,6.88
2023-06-20T16:19:35.156Z,6.32
2023-06-20T16:22:03.189Z,6.38
2023-06-20T16:24:30.082Z,4.78
2023-06-20T16:26:57.379Z,6.25
2023-06-20T16:29:24.230Z,6.53
2023-06-20T16:31:51.230Z,10.80
2023-06-20T16:34:19.484Z,7.38
2023-06-20T16:36:46.295Z,4.53
2023-06-20T16:39:13.197Z,5.85
2023-06-20T16:41:42.578Z,5.55
2023-06-20T16:44:12.874Z,3.92
2023-06-20T16:46:41.899Z,8.68
2023-06-20T16:49:08.739Z,6.30
2023-06-20T16:51:35.740Z,4.57
2023-06-20T16:54:03.057Z,6.88
2023-06-20T16:56:30.476Z,6.70
2023-06-20T16:58:57.287Z,5.75
2023-06-20T17:01:25.506Z,6.90
2023-06-20T17:03:52.463Z,5.70
2023-06-20T17:06:19.417Z,7.22
2023-06-20T17:08:46.323Z,5.05
2023-06-20T17:11:13.335Z,8.30
2023-06-20T17:13:43.535Z,5.32
2023-06-20T17:16:10.568Z,10.98
2023-06-20T17:18:37.430Z,10.02
2023-06-20T17:21:04.891Z,11.40
2023-06-20T17:23:31.792Z,8.20
2023-06-20T17:25:58.682Z,6.07
2023-06-20T17:28:25.559Z,11.75
2023-06-20T17:30:52.500Z,12.18
2023-06-20T17:33:20.555Z,6.80
2023-06-20T17:35:47.369Z,7.07
2023-06-20T17:38:15.494Z,7.38
2023-06-20T17:40:42.350Z,11.40
2023-06-20T17:43:09.676Z,6.95
2023-06-20T17:45:37.628Z,10.82
2023-06-20T17:48:06.008Z,7.28
2023-06-20T17:50:33.520Z,5.43
2023-06-20T17:53:00.601Z,8.38
2023-06-20T17:55:28.163Z,6.18
2023-06-20T17:58:01.307Z,8.23
2023-06-20T18:00:28.929Z,12.48
2023-06-20T18:02:56.404Z,5.95
2023-06-20T18:05:23.390Z,5.57
2023-06-20T18:07:50.239Z,8.77
2023-06-20T18:10:18.504Z,8.45
2023-06-20T18:12:45.754Z,8.93
2023-06-20T18:15:12.618Z,14.25
2023-06-20T18:17:39.639Z,10.35
2023-06-20T18:20:07.376Z,6.88
2023-06-20T18:22:34.447Z,6.30
2023-06-20T18:25:01.332Z,9.45
2023-06-20T18:27:28.138Z,8.35
2023-06-20T18:29:55.212Z,7.38
2023-06-20T18:32:22.093Z,6.53
2023-06-20T18:34:48.854Z,16.30
2023-06-20T18:37:15.749Z,9.73
2023-06-20T18:39:42.746Z,10.30
2023-06-20T18:42:09.679Z,7.50
2023-06-20T18:44:39.864Z,15.18
2023-06-20T18:47:09.959Z,7.63
2023-06-20T18:49:40.591Z,8.35
2023-06-20T18:52:22.551Z,6.78
2023-06-20T18:55:00.264Z,8.55
2023-06-20T18:57:37.028Z,6.47
2023-06-20T19:00:07.585Z,8.73
2023-06-20T19:02:40.750Z,6.30
2023-06-20T19:05:13.467Z,8.18
2023-06-20T19:07:48.134Z,5.00
2023-06-20T19:10:25.067Z,6.38
2023-06-20T19:12:56.090Z,6.75
2023-06-20T19:15:28.729Z,5.47
2023-06-20T19:17:58.876Z,6.43
2023-06-20T19:20:27.025Z,5.15
2023-06-20T19:22:57.695Z,10.00
2023-06-20T19:25:34.858Z,6.55
2023-06-20T19:28:19.667Z,7.78
2023-06-20T19:30:50.720Z,6.45
2023-06-20T19:33:17.862Z,6.28
2023-06-20T19:35:59.661Z,5.55
2023-06-20T19:38:39.652Z,7.80
2023-06-20T19:41:10.039Z,9.52
2023-06-20T19:43:44.235Z,9.90
2023-06-20T19:46:12.671Z,9.70
2023-06-20T19:48:57.732Z,6.88
2023-06-20T19:51:36.574Z,6.72
2023-06-20T19:54:14.910Z,8.82
2023-06-20T19:56:46.848Z,6.40
2023-06-20T19:59:14.161Z,6.65
2023-06-20T20:01:49.417Z,9.75
2023-06-20T20:04:26.840Z,8.25
2023-06-20T20:06:56.452Z,8.60
2023-06-20T20:09:23.388Z,5.97
2023-06-20T20:11:50.306Z,6.93
2023-06-20T20:14:17.200Z,8.55
2023-06-20T20:16:44.178Z,10.57
2023-06-20T20:19:11.371Z,5.43
2023-06-20T20:21:38.209Z,4.95
2023-06-20T20:24:05.496Z,5.95
2023-06-20T20:26:32.337Z,6.65
2023-06-20T20:28:59.366Z,9.82
2023-06-20T20:31:26.180Z,7.05
2023-06-20T20:33:53.191Z,7.97
2023-06-20T20:36:20.007Z,7.47
2023-06-20T20:38:49.471Z,4.65
2023-06-20T20:41:19.414Z,4.95
2023-06-20T20:43:46.517Z,8.45
2023-06-20T20:46:20.350Z,6.13
2023-06-20T20:48:48.193Z,9.70
2023-06-20T20:51:15.262Z,7.75
2023-06-20T20:53:42.594Z,5.75
2023-06-20T20:56:09.419Z,6.00
2023-06-20T20:58:36.358Z,6.47
2023-06-20T21:01:03.454Z,6.05
2023-06-20T21:03:30.527Z,9.30
2023-06-20T21:05:57.597Z,6.65
2023-06-20T21:08:24.677Z,7.28
2023-06-20T21:10:51.482Z,8.63
2023-06-20T21:13:18.675Z,9.77
2023-06-20T21:15:45.556Z,9.57
2023-06-20T21:18:12.487Z,7.50
2023-06-20T21:20:39.544Z,8.00
2023-06-20T21:23:07.233Z,8.93
2023-06-20T21:25:35.964Z,6.00
2023-06-20T21:28:03.126Z,7.00
2023-06-20T21:30:30.383Z,5.88
2023-06-20T21:32:57.459Z,8.82
2023-06-20T21:35:24.254Z,9.52
2023-06-20T21:37:51.408Z,8.32
2023-06-20T21:40:18.281Z,8.05
2023-06-20T21:42:45.086Z,8.30
2023-06-20T21:45:12.087Z,7.18
2023-06-20T21:47:38.957Z,7.18
2023-06-20T21:50:06.646Z,12.18
2023-06-20T21:52:33.666Z,10.13
2023-06-20T21:55:00.847Z,10.88
2023-06-20T21:57:27.979Z,7.82
2023-06-20T21:59:54.846Z,8.48
2023-06-20T22:02:21.634Z,11.63
2023-06-20T22:04:48.504Z,14.90
2023-06-20T22:07:15.429Z,9.80
2023-06-20T22:09:58.371Z,8.02
2023-06-20T22:12:29.580Z,5.45
2023-06-20T22:14:58.431Z,8.00
2023-06-20T22:17:27.168Z,8.93
2023-06-20T22:19:54.773Z,7.63
2023-06-20T22:22:21.641Z,9.10
2023-06-20T22:24:48.574Z,6.40
2023-06-20T22:27:15.470Z,9.43
2023-06-20T22:29:42.315Z,6.57
2023-06-20T22:32:09.433Z,7.50
2023-06-20T22:34:36.351Z,7.85
2023-06-20T22:37:03.267Z,10.98
2023-06-20T22:39:30.151Z,9.50
2023-06-20T22:41:57.192Z,8.38
2023-06-20T22:44:24.413Z,7.47
2023-06-20T22:46:51.490Z,12.23
2023-06-20T22:49:22.803Z,6.53
2023-06-20T22:51:53.793Z,7.57
2023-06-20T22:54:25.173Z,6.13
2023-06-20T22:56:52.706Z,15.90
2023-06-20T22:59:20.864Z,11.35
2023-06-20T23:01:48.638Z,11.93
2023-06-20T23:04:15.542Z,9.75
2023-06-20T23:06:42.470Z,8.10
2023-06-20T23:09:09.349Z,7.55
2023-06-20T23:11:36.833Z,8.32
2023-06-20T23:14:04.236Z,10.93
2023-06-20T23:16:32.206Z,7.70
2023-06-20T23:18:59.350Z,10.38
2023-06-20T23:21:27.117Z,8.88
2023-06-20T23:23:54.246Z,9.27
2023-06-20T23:26:22.256Z,7.68
2023-06-20T23:28:50.860Z,11.00
2023-06-20T23:31:18.882Z,12.00
2023-06-20T23:33:47.038Z,8.68
2023-06-20T23:36:17.201Z,10.68
2023-06-20T23:38:45.019Z,10.57
2023-06-20T23:41:12.037Z,9.45
2023-06-20T23:43:39.003Z,7.88
2023-06-20T23:46:05.815Z,9.77
2023-06-20T23:48:32.650Z,9.73
2023-06-20T23:50:59.590Z,8.52
2023-06-20T23:53:26.533Z,7.95
2023-06-20T23:55:53.532Z,9.73
2023-06-20T23:58:20.448Z,8.65
